createdAt,value
2018-08-25T00:01:12.275Z,70.30
2018-08-25T00:03:46.430Z,70.30
2018-08-25T00:06:20.682Z,70.30
2018-08-25T00:08:55.097Z,70.90
2018-08-25T00:11:29.538Z,71.00
2018-08-25T00:14:03.807Z,70.30
2018-08-25T00:16:38.348Z,69.80
2018-08-25T00:19:12.623Z,70.50
2018-08-25T00:21:46.754Z,72.40
2018-08-25T00:24:20.919Z,72.50
2018-08-25T00:26:55.283Z,72.40
2018-08-25T00:29:29.706Z,71.50
2018-08-25T00:32:04.079Z,71.60
2018-08-25T00:34:38.439Z,70.90
2018-08-25T00:37:12.779Z,70.80
2018-08-25T00:39:47.054Z,71.40
2018-08-25T00:42:21.510Z,70.10
2018-08-25T00:44:55.779Z,70.10
2018-08-25T00:47:30.062Z,70.60
2018-08-25T00:50:04.319Z,70.10
2018-08-25T00:52:38.665Z,70.40
2018-08-25T00:55:13.194Z,70.60
2018-08-25T00:57:47.375Z,70.70
2018-08-25T01:00:21.701Z,71.20
2018-08-25T01:02:56.002Z,70.10
2018-08-25T01:05:30.518Z,70.00
2018-08-25T01:08:05.141Z,69.40
2018-08-25T01:10:39.495Z,68.90
2018-08-25T01:13:13.877Z,68.70
2018-08-25T01:15:48.340Z,68.90
2018-08-25T01:18:22.781Z,68.40
2018-08-25T01:20:57.039Z,69.10
2018-08-25T01:23:31.336Z,69.30
2018-08-25T01:26:05.674Z,70.00
2018-08-25T01:28:40.042Z,70.00
2018-08-25T01:31:14.459Z,69.70
2018-08-25T01:33:48.878Z,70.00
2018-08-25T01:36:23.045Z,69.20
2018-08-25T01:38:57.460Z,69.70
2018-08-25T01:41:31.691Z,69.90
2018-08-25T01:44:06.154Z,69.30
2018-08-25T01:46:40.374Z,69.50
2018-08-25T01:49:14.687Z,69.30
2018-08-25T01:51:48.908Z,69.60
2018-08-25T01:54:23.191Z,70.30
2018-08-25T01:56:57.513Z,71.30
2018-08-25T01:59:31.870Z,70.90
2018-08-25T02:02:06.326Z,71.00
2018-08-25T02:04:40.649Z,70.70
2018-08-25T02:07:14.867Z,71.60
2018-08-25T02:09:49.254Z,70.70
2018-08-25T02:12:23.562Z,71.20
2018-08-25T02:14:57.918Z,71.30
2018-08-25T02:17:32.190Z,71.90
2018-08-25T02:20:06.614Z,71.00
2018-08-25T02:22:40.869Z,71.00
2018-08-25T02:25:15.067Z,71.60
2018-08-25T02:27:49.411Z,71.30
2018-08-25T02:30:23.691Z,71.80
2018-08-25T02:32:57.982Z,71.50
2018-08-25T02:35:32.274Z,71.50
2018-08-25T02:38:06.621Z,71.90
2018-08-25T02:40:40.892Z,72.30
2018-08-25T02:43:15.174Z,72.20
2018-08-25T02:45:49.553Z,72.90
2018-08-25T02:48:23.850Z,72.50
2018-08-25T02:50:58.162Z,72.30
2018-08-25T02:53:32.488Z,72.00
2018-08-25T02:56:06.945Z,72.90
2018-08-25T02:58:41.375Z,73.00
2018-08-25T03:01:15.718Z,73.10
2018-08-25T03:03:50.080Z,73.30
2018-08-25T03:06:24.369Z,72.90
2018-08-25T03:08:58.823Z,72.90
2018-08-25T03:11:33.926Z,72.40
2018-08-25T03:14:08.170Z,72.30
2018-08-25T03:16:42.551Z,72.60
2018-08-25T03:19:16.890Z,72.40
2018-08-25T03:21:51.230Z,72.50
2018-08-25T03:24:25.541Z,73.00
2018-08-25T03:26:59.706Z,72.30
2018-08-25T03:29:33.999Z,72.90
2018-08-25T03:32:08.376Z,72.60
2018-08-25T03:34:42.698Z,72.70
2018-08-25T03:37:17.073Z,73.50
2018-08-25T03:39:51.245Z,72.80
2018-08-25T03:42:25.574Z,73.20
2018-08-25T03:45:00.130Z,73.60
2018-08-25T03:47:34.380Z,73.80
2018-08-25T03:50:08.631Z,73.20
2018-08-25T03:52:42.942Z,73.00
2018-08-25T03:55:17.393Z,72.60
2018-08-25T03:57:51.706Z,72.60
2018-08-25T04:00:25.896Z,72.70
2018-08-25T04:03:00.205Z,73.90
2018-08-25T04:05:34.465Z,74.10
2018-08-25T04:08:08.694Z,73.30
2018-08-25T04:10:43.103Z,73.20
2018-08-25T04:13:17.323Z,73.00
2018-08-25T04:15:51.644Z,73.50
2018-08-25T04:18:25.998Z,73.20
2018-08-25T04:21:00.134Z,73.10
2018-08-25T04:23:34.601Z,75.00
2018-08-25T04:26:08.967Z,73.90
2018-08-25T04:28:43.177Z,73.80
2018-08-25T04:31:17.467Z,72.90
2018-08-25T04:33:51.639Z,72.70
2018-08-25T04:36:25.951Z,72.70
2018-08-25T04:39:00.166Z,72.00
2018-08-25T04:41:34.485Z,72.60
2018-08-25T04:44:09.227Z,72.70
2018-08-25T04:46:43.542Z,72.20
2018-08-25T04:49:18.146Z,72.30
2018-08-25T04:51:52.293Z,72.00
2018-08-25T04:54:26.471Z,72.50
2018-08-25T04:57:00.869Z,72.20
2018-08-25T04:59:35.127Z,72.60
2018-08-25T05:02:09.408Z,72.20
2018-08-25T05:04:43.692Z,72.00
2018-08-25T05:07:18.091Z,72.30
2018-08-25T05:09:52.395Z,73.20
2018-08-25T05:12:26.671Z,72.50
2018-08-25T05:15:00.906Z,72.90
2018-08-25T05:17:35.117Z,72.40
2018-08-25T05:20:09.509Z,71.80
2018-08-25T05:22:43.813Z,72.50
2018-08-25T05:25:18.142Z,72.40
2018-08-25T05:27:52.307Z,72.50
2018-08-25T05:30:26.555Z,72.20
2018-08-25T05:33:00.954Z,71.90
2018-08-25T05:35:35.293Z,71.50
2018-08-25T05:38:09.522Z,71.90
2018-08-25T05:40:43.754Z,71.90
2018-08-25T05:43:18.034Z,71.90
2018-08-25T05:45:52.329Z,71.70
2018-08-25T05:48:26.613Z,71.20
2018-08-25T05:51:00.958Z,71.90
2018-08-25T05:53:35.234Z,73.70
2018-08-25T05:56:09.378Z,73.40
2018-08-25T05:58:43.620Z,74.10
2018-08-25T06:01:17.970Z,74.80
2018-08-25T06:03:52.238Z,78.40
2018-08-25T06:06:26.661Z,82.60
2018-08-25T06:09:00.982Z,84.00
2018-08-25T06:11:35.181Z,85.80
2018-08-25T06:14:09.378Z,88.00
2018-08-25T06:16:43.523Z,88.90
2018-08-25T06:19:17.996Z,89.50
2018-08-25T06:21:52.105Z,89.80
2018-08-25T06:24:26.413Z,89.20
2018-08-25T06:27:00.727Z,89.60
2018-08-25T06:29:35.071Z,90.70
2018-08-25T06:32:09.323Z,91.00
2018-08-25T06:34:43.631Z,91.00
2018-08-25T06:37:17.879Z,91.30
2018-08-25T06:39:52.292Z,91.90
2018-08-25T06:42:26.714Z,92.10
2018-08-25T06:45:01.079Z,92.10
2018-08-25T06:47:35.430Z,92.40
2018-08-25T06:50:09.729Z,92.70
2018-08-25T06:52:44.026Z,92.60
2018-08-25T06:55:18.402Z,93.10
2018-08-25T06:57:52.749Z,92.90
2018-08-25T07:00:27.046Z,93.30
2018-08-25T07:03:01.331Z,93.40
2018-08-25T07:05:35.618Z,93.20
2018-08-25T07:08:09.894Z,93.20
2018-08-25T07:10:44.130Z,93.30
2018-08-25T07:13:18.383Z,93.50
2018-08-25T07:15:52.688Z,93.80
2018-08-25T07:18:26.967Z,94.00
2018-08-25T07:21:01.283Z,93.30
2018-08-25T07:23:35.505Z,93.10
2018-08-25T07:26:09.680Z,93.80
2018-08-25T07:28:43.934Z,93.80
2018-08-25T07:31:18.358Z,94.00
2018-08-25T07:33:52.613Z,93.60
2018-08-25T07:36:26.993Z,93.60
2018-08-25T07:39:01.285Z,93.20
2018-08-25T07:41:35.673Z,93.20
2018-08-25T07:44:09.857Z,93.40
2018-08-25T07:46:44.114Z,93.50
2018-08-25T07:49:18.425Z,93.70
2018-08-25T07:51:52.710Z,93.20
2018-08-25T07:54:26.894Z,93.30
2018-08-25T07:57:01.183Z,93.30
2018-08-25T07:59:35.473Z,93.50
2018-08-25T08:02:09.791Z,92.80
2018-08-25T08:04:44.153Z,92.80
2018-08-25T08:07:18.306Z,92.60
2018-08-25T08:09:52.498Z,92.50
2018-08-25T08:12:26.747Z,91.90
2018-08-25T08:15:01.175Z,91.70
2018-08-25T08:17:35.458Z,91.80
2018-08-25T08:20:10.302Z,92.40
2018-08-25T08:22:44.538Z,92.00
2018-08-25T08:25:18.990Z,91.90
2018-08-25T08:27:53.346Z,91.00
2018-08-25T08:30:27.466Z,90.60
2018-08-25T08:33:01.846Z,91.50
2018-08-25T08:35:36.265Z,92.20
2018-08-25T08:38:10.537Z,92.20
2018-08-25T08:40:44.727Z,91.60
2018-08-25T08:43:19.874Z,91.80
2018-08-25T08:45:54.128Z,91.30
2018-08-25T08:48:28.551Z,91.00
2018-08-25T08:51:02.937Z,90.90
2018-08-25T08:53:37.233Z,91.50
2018-08-25T08:56:11.581Z,91.30
2018-08-25T08:58:45.853Z,90.70
2018-08-25T09:01:20.492Z,91.50
2018-08-25T09:03:54.942Z,91.70
2018-08-25T09:06:29.142Z,92.30
2018-08-25T09:09:04.592Z,92.50
2018-08-25T09:11:39.220Z,92.20
2018-08-25T09:14:13.324Z,91.70
2018-08-25T09:16:47.623Z,91.70
2018-08-25T09:19:21.933Z,88.30
2018-08-25T09:21:56.010Z,87.30
2018-08-25T09:24:30.258Z,88.10
2018-08-25T09:27:04.626Z,87.70
2018-08-25T09:29:39.030Z,87.80
2018-08-25T09:32:13.221Z,84.80
2018-08-25T09:34:47.578Z,82.80
2018-08-25T09:37:21.944Z,82.40
2018-08-25T09:39:56.257Z,82.00
2018-08-25T09:42:30.619Z,82.60
2018-08-25T09:45:04.931Z,78.80
2018-08-25T09:47:39.291Z,79.30
2018-08-25T09:50:13.679Z,77.40
2018-08-25T09:52:47.938Z,76.20
2018-08-25T09:55:22.334Z,76.50
2018-08-25T09:57:56.720Z,77.60
2018-08-25T10:00:31.021Z,79.20
2018-08-25T10:03:05.350Z,80.20
2018-08-25T10:05:39.504Z,80.30
2018-08-25T10:08:13.802Z,80.50
2018-08-25T10:10:48.193Z,82.00
2018-08-25T10:13:22.546Z,82.50
2018-08-25T10:15:56.870Z,82.70
2018-08-25T10:18:31.265Z,84.00
2018-08-25T10:21:05.614Z,85.10
2018-08-25T10:23:39.983Z,85.00
2018-08-25T10:26:14.197Z,85.70
2018-08-25T10:28:48.377Z,82.60
2018-08-25T10:31:22.694Z,83.30
2018-08-25T10:33:57.144Z,81.00
2018-08-25T10:36:31.512Z,79.80
2018-08-25T10:39:08.614Z,78.70
2018-08-25T10:41:42.873Z,78.50
2018-08-25T10:44:17.009Z,78.50
2018-08-25T10:46:51.285Z,73.60
2018-08-25T10:49:25.563Z,72.90
2018-08-25T10:52:00.022Z,74.30
2018-08-25T10:54:34.332Z,74.70
2018-08-25T10:57:08.554Z,75.70
2018-08-25T10:59:42.855Z,77.30
2018-08-25T11:02:22.214Z,79.60
2018-08-25T11:04:56.366Z,80.90
2018-08-25T11:07:30.790Z,83.20
2018-08-25T11:10:04.977Z,82.50
2018-08-25T11:12:39.259Z,83.50
2018-08-25T11:15:13.557Z,83.50
2018-08-25T11:17:47.893Z,82.30
2018-08-25T11:20:22.159Z,82.40
2018-08-25T11:22:56.517Z,79.50
2018-08-25T11:25:30.946Z,78.60
2018-08-25T11:28:05.202Z,74.00
2018-08-25T11:30:39.489Z,72.00
2018-08-25T11:33:13.810Z,71.90
2018-08-25T11:35:48.220Z,71.40
2018-08-25T11:38:22.646Z,70.20
2018-08-25T11:40:56.989Z,71.60
2018-08-25T11:43:31.158Z,70.10
2018-08-25T11:46:05.490Z,70.70
2018-08-25T11:48:39.690Z,70.10
2018-08-25T11:51:13.867Z,70.30
2018-08-25T11:53:48.240Z,68.40
2018-08-25T11:56:22.527Z,67.30
2018-08-25T11:58:56.869Z,69.70
2018-08-25T12:01:32.074Z,67.10
2018-08-25T12:04:06.350Z,67.40
2018-08-25T12:06:40.784Z,65.50
2018-08-25T12:09:15.170Z,66.80
2018-08-25T12:11:49.490Z,67.50
2018-08-25T12:14:23.966Z,68.30
2018-08-25T12:16:58.134Z,69.20
2018-08-25T12:19:32.446Z,70.30
2018-08-25T12:22:06.762Z,69.10
2018-08-25T12:24:41.053Z,69.00
2018-08-25T12:27:15.318Z,70.40
2018-08-25T12:29:49.470Z,70.50
2018-08-25T12:32:23.686Z,70.40
2018-08-25T12:34:57.937Z,69.90
2018-08-25T12:37:32.263Z,70.80
2018-08-25T12:40:06.950Z,69.80
2018-08-25T12:42:41.154Z,69.70
2018-08-25T12:45:15.462Z,69.50
2018-08-25T12:47:49.785Z,70.20
2018-08-25T12:50:24.017Z,71.10
2018-08-25T12:52:58.304Z,70.90
2018-08-25T12:55:32.618Z,72.60
2018-08-25T12:58:06.966Z,70.90
2018-08-25T13:00:41.194Z,69.80
2018-08-25T13:03:15.378Z,69.90
2018-08-25T13:05:49.623Z,68.80
2018-08-25T13:08:23.895Z,68.50
2018-08-25T13:10:58.234Z,69.50
2018-08-25T13:13:32.558Z,67.70
2018-08-25T13:16:06.967Z,67.50
2018-08-25T13:18:41.183Z,65.70
2018-08-25T13:21:15.492Z,64.80
2018-08-25T13:23:49.846Z,62.30
2018-08-25T13:26:24.103Z,63.30
2018-08-25T13:28:58.514Z,64.00
2018-08-25T13:31:32.811Z,63.90
2018-08-25T13:34:07.181Z,63.70
2018-08-25T13:36:41.462Z,62.60
2018-08-25T13:39:15.742Z,64.10
2018-08-25T13:41:50.081Z,64.10
2018-08-25T13:44:24.380Z,64.70
2018-08-25T13:46:58.782Z,63.00
2018-08-25T13:49:33.084Z,63.40
2018-08-25T13:52:07.378Z,63.30
2018-08-25T13:54:41.718Z,63.90
2018-08-25T13:57:15.918Z,63.90
2018-08-25T13:59:50.309Z,63.50
2018-08-25T14:02:24.609Z,63.70
2018-08-25T14:04:58.898Z,64.60
2018-08-25T14:07:33.197Z,67.20
2018-08-25T14:10:07.457Z,69.00
2018-08-25T14:12:41.727Z,71.60
2018-08-25T14:15:15.902Z,73.90
2018-08-25T14:17:50.151Z,75.00
2018-08-25T14:20:24.630Z,75.40
2018-08-25T14:22:59.157Z,77.00
2018-08-25T14:25:33.326Z,74.80
2018-08-25T14:28:07.708Z,76.20
2018-08-25T14:30:42.023Z,76.80
2018-08-25T14:33:16.583Z,76.70
2018-08-25T14:35:50.826Z,73.70
2018-08-25T14:38:25.345Z,70.80
2018-08-25T14:40:59.574Z,70.30
2018-08-25T14:43:33.815Z,67.50
2018-08-25T14:46:08.137Z,67.10
2018-08-25T14:48:42.337Z,65.30
2018-08-25T14:51:16.775Z,64.70
2018-08-25T14:53:51.063Z,64.60
2018-08-25T14:56:25.477Z,64.50
2018-08-25T14:59:00.043Z,65.30
2018-08-25T15:01:34.381Z,64.60
2018-08-25T15:04:08.768Z,65.30
2018-08-25T15:06:43.026Z,65.30
2018-08-25T15:09:17.525Z,66.90
2018-08-25T15:11:51.787Z,68.30
2018-08-25T15:14:26.112Z,71.00
2018-08-25T15:17:00.662Z,71.80
2018-08-25T15:19:34.921Z,73.50
2018-08-25T15:22:09.108Z,73.10
2018-08-25T15:24:43.594Z,74.30
2018-08-25T15:27:17.847Z,75.00
2018-08-25T15:29:52.199Z,74.70
2018-08-25T15:32:26.588Z,75.70
2018-08-25T15:35:00.909Z,74.90
2018-08-25T15:37:35.318Z,73.20
2018-08-25T15:40:09.735Z,71.10
2018-08-25T15:42:44.054Z,70.30
2018-08-25T15:45:18.434Z,71.20
2018-08-25T15:47:52.712Z,70.70
2018-08-25T15:50:27.074Z,70.90
2018-08-25T15:53:01.363Z,71.20
2018-08-25T15:55:35.628Z,71.10
2018-08-25T15:58:09.950Z,70.30
2018-08-25T16:00:44.230Z,67.50
2018-08-25T16:03:18.609Z,68.20
2018-08-25T16:05:52.923Z,67.30
2018-08-25T16:08:27.256Z,65.30
2018-08-25T16:11:01.594Z,65.40
2018-08-25T16:13:35.946Z,65.50
2018-08-25T16:16:10.362Z,64.80
2018-08-25T16:18:44.744Z,65.40
2018-08-25T16:21:19.085Z,65.00
2018-08-25T16:23:53.282Z,65.60
2018-08-25T16:26:27.761Z,64.90
2018-08-25T16:29:02.035Z,64.90
2018-08-25T16:31:36.285Z,66.80
2018-08-25T16:34:10.778Z,68.40
2018-08-25T16:36:45.067Z,68.70
2018-08-25T16:39:19.453Z,70.10
2018-08-25T16:41:53.738Z,71.50
2018-08-25T16:44:28.053Z,71.60
2018-08-25T16:47:02.443Z,71.40
2018-08-25T16:49:36.743Z,71.50
2018-08-25T16:52:11.041Z,71.40
2018-08-25T16:54:45.334Z,72.30
2018-08-25T16:57:19.502Z,72.00
2018-08-25T16:59:53.798Z,71.50
2018-08-25T17:02:28.240Z,71.40
2018-08-25T17:05:02.392Z,72.00
2018-08-25T17:07:36.807Z,71.60
2018-08-25T17:10:11.207Z,71.20
2018-08-25T17:12:45.475Z,68.70
2018-08-25T17:15:19.827Z,68.80
2018-08-25T17:17:54.094Z,68.50
2018-08-25T17:20:28.349Z,69.00
2018-08-25T17:23:02.679Z,68.90
2018-08-25T17:25:36.978Z,69.80
2018-08-25T17:28:11.457Z,71.40
2018-08-25T17:30:45.658Z,72.20
2018-08-25T17:33:20.050Z,73.60
2018-08-25T17:35:54.558Z,74.70
2018-08-25T17:38:28.718Z,76.40
2018-08-25T17:41:02.899Z,77.80
2018-08-25T17:43:37.222Z,78.40
2018-08-25T17:46:11.571Z,78.40
2018-08-25T17:48:45.870Z,78.80
2018-08-25T17:51:20.170Z,78.20
2018-08-25T17:53:54.345Z,77.90
2018-08-25T17:56:28.619Z,76.90
2018-08-25T17:59:02.855Z,76.80
2018-08-25T18:01:37.195Z,77.20
2018-08-25T18:04:11.482Z,77.10
2018-08-25T18:06:45.818Z,78.00
2018-08-25T18:09:20.090Z,77.00
2018-08-25T18:11:54.371Z,77.60
2018-08-25T18:14:28.785Z,77.80
2018-08-25T18:17:03.261Z,78.70
2018-08-25T18:19:37.582Z,80.00
2018-08-25T18:22:12.030Z,80.00
2018-08-25T18:24:46.327Z,80.40
2018-08-25T18:27:20.646Z,80.40
2018-08-25T18:29:54.914Z,80.40
2018-08-25T18:32:29.351Z,81.00
2018-08-25T18:35:03.678Z,80.60
2018-08-25T18:37:37.982Z,80.60
2018-08-25T18:40:12.437Z,81.00
2018-08-25T18:42:46.678Z,81.40
2018-08-25T18:45:21.006Z,81.30
2018-08-25T18:47:55.278Z,81.80
2018-08-25T18:50:29.687Z,82.50
2018-08-25T18:53:03.986Z,81.90
2018-08-25T18:55:38.295Z,81.80
2018-08-25T18:58:12.490Z,81.70
2018-08-25T19:00:46.779Z,82.10
2018-08-25T19:03:20.949Z,82.40
2018-08-25T19:05:55.438Z,82.20
2018-08-25T19:08:29.771Z,82.80
2018-08-25T19:11:04.002Z,83.30
2018-08-25T19:13:38.194Z,83.90
2018-08-25T19:16:12.499Z,84.20
2018-08-25T19:18:46.809Z,84.50
2018-08-25T19:21:21.016Z,84.70
2018-08-25T19:23:55.369Z,84.70
2018-08-25T19:26:29.851Z,84.70
2018-08-25T19:29:04.023Z,85.20
2018-08-25T19:31:38.398Z,84.30
2018-08-25T19:34:12.603Z,83.90
2018-08-25T19:36:46.849Z,83.20
2018-08-25T19:39:21.206Z,82.50
2018-08-25T19:41:55.467Z,82.60
2018-08-25T19:44:29.841Z,83.90
2018-08-25T19:47:04.197Z,83.10
2018-08-25T19:49:38.628Z,84.70
2018-08-25T19:52:12.910Z,84.30
2018-08-25T19:54:47.241Z,84.50
2018-08-25T19:57:21.706Z,85.40
2018-08-25T19:59:55.961Z,85.90
2018-08-25T20:02:30.259Z,85.70
2018-08-25T20:05:04.551Z,85.40
2018-08-25T20:07:38.866Z,86.20
2018-08-25T20:10:13.330Z,85.70
2018-08-25T20:12:47.667Z,85.90
2018-08-25T20:15:21.993Z,86.00
2018-08-25T20:17:56.219Z,85.70
2018-08-25T20:20:30.383Z,85.70
2018-08-25T20:23:05.226Z,85.90
2018-08-25T20:25:39.608Z,86.40
2018-08-25T20:28:13.818Z,85.70
2018-08-25T20:30:48.152Z,85.90
2018-08-25T20:33:22.303Z,85.80
2018-08-25T20:35:56.554Z,86.40
2018-08-25T20:38:30.807Z,86.90
2018-08-25T20:41:05.059Z,87.50
2018-08-25T20:43:39.363Z,87.80
2018-08-25T20:46:13.781Z,88.10
2018-08-25T20:48:48.073Z,88.30
2018-08-25T20:51:22.442Z,88.30
2018-08-25T20:53:56.842Z,88.50
2018-08-25T20:56:31.926Z,88.70
2018-08-25T20:59:06.183Z,88.50
2018-08-25T21:01:40.506Z,88.60
2018-08-25T21:04:14.851Z,88.80
2018-08-25T21:06:49.176Z,88.70
2018-08-25T21:09:23.402Z,88.00
2018-08-25T21:11:57.711Z,88.70
2018-08-25T21:14:32.006Z,88.50
2018-08-25T21:17:06.315Z,88.40
2018-08-25T21:19:40.658Z,88.30
2018-08-25T21:22:14.976Z,88.50
2018-08-25T21:24:49.376Z,88.70
2018-08-25T21:27:23.764Z,88.80
2018-08-25T21:29:57.922Z,88.80
2018-08-25T21:32:32.267Z,89.00
2018-08-25T21:35:07.014Z,89.30
2018-08-25T21:37:41.375Z,89.50
2018-08-25T21:40:15.853Z,89.50
2018-08-25T21:42:50.059Z,89.70
2018-08-25T21:45:24.185Z,89.40
2018-08-25T21:47:58.444Z,90.00
2018-08-25T21:50:32.853Z,90.20
2018-08-25T21:53:07.164Z,90.20
2018-08-25T21:55:41.483Z,90.50
2018-08-25T21:58:15.800Z,90.30
2018-08-25T22:00:55.093Z,90.30
2018-08-25T22:03:29.361Z,90.20
2018-08-25T22:06:03.689Z,90.40
2018-08-25T22:08:37.982Z,90.40
2018-08-25T22:11:12.440Z,90.20
2018-08-25T22:13:46.650Z,90.30
2018-08-25T22:16:20.924Z,90.40
2018-08-25T22:18:55.151Z,90.30
2018-08-25T22:21:29.646Z,90.30
2018-08-25T22:24:03.867Z,90.20
2018-08-25T22:26:38.256Z,90.20
2018-08-25T22:29:12.410Z,90.40
2018-08-25T22:31:46.551Z,90.30
2018-08-25T22:34:20.831Z,90.50
2018-08-25T22:36:55.081Z,90.30
2018-08-25T22:39:29.378Z,90.50
2018-08-25T22:42:03.678Z,90.60
2018-08-25T22:44:38.006Z,90.70
2018-08-25T22:47:12.107Z,90.60
2018-08-25T22:49:46.532Z,90.90
2018-08-25T22:52:26.062Z,90.90
2018-08-25T22:55:00.299Z,91.00
2018-08-25T22:57:34.546Z,90.90
2018-08-25T23:00:08.905Z,90.80
2018-08-25T23:02:43.151Z,91.10
2018-08-25T23:05:17.498Z,91.10
2018-08-25T23:07:51.765Z,91.10
2018-08-25T23:10:26.045Z,91.00
2018-08-25T23:13:00.351Z,91.00
2018-08-25T23:15:34.497Z,90.90
2018-08-25T23:18:08.783Z,91.00
2018-08-25T23:20:43.304Z,90.90
2018-08-25T23:23:17.529Z,90.90
2018-08-25T23:25:51.934Z,91.00
2018-08-25T23:28:26.149Z,91.60
2018-08-25T23:31:00.506Z,91.40
2018-08-25T23:33:34.880Z,91.30
2018-08-25T23:36:09.182Z,91.60
2018-08-25T23:38:43.616Z,91.50
2018-08-25T23:41:17.834Z,91.60
2018-08-25T23:43:52.106Z,91.60
2018-08-25T23:46:26.403Z,91.60
2018-08-25T23:49:00.575Z,91.90
2018-08-25T23:51:34.766Z,92.30
2018-08-25T23:54:09.093Z,92.40
2018-08-25T23:56:43.480Z,92.60
2018-08-25T23:59:17.862Z,92.50
